• Join FlightAware (Why Join?)
  • Login
  • US Flag 
01:56AM EST


 

Airport Tracker/Info


-or-


 

Live Flight TrackerFlight Track Log ✈ N320CB ✈ 11-Jun-2014 ✈ KTEB - KCLT

Flight Track Log - Related Links

Times and Time Zones

All times are in EDT time to prevent confusion due to time zone crossing. See the N320CB flight status page for this flight to view local times or setup timezone preferences in your user account.

Time Position Orientation Groundspeed Altitude Reporting Facility
EDT Latitude Longitude Course Direction KTS MPH feet Rate Location/Type
06:57PM 40.9000 -74.0333 157° South 207 238 2,000  Level New York TRACON
06:58PM 40.9333 -74.1167 298° West 276 318 3,800 1,740 Climbing New York TRACON
06:59PM 40.8833 -74.1833 225° Southwest 269 310 5,500 1,680 Climbing New York TRACON
07:00PM 40.8167 -74.2167 201° Southwest 265 305 7,200 1,260 Climbing New York TRACON
07:01PM 40.7500 -74.2500 201° Southwest 267 307 8,100 1,260 Climbing New York TRACON
07:02PM 40.6833 -74.3000 210° Southwest 284 327 9,600 1,500 Climbing New York TRACON
07:03PM 40.3269 -74.1557 157° South  Level FlightAware Approximate
07:03PM 40.6167 -74.3333 201° Southwest 284 327 11,000  Level New York TRACON
07:04PM 40.5500 -74.3500 191° South 313 360 11,300 840 Climbing New York TRACON
07:05PM 40.5167 -74.2667 118° Southeast 305 351 12,700 900 Climbing New York TRACON
07:06PM 40.5000 -74.1500 101° East 320 368 13,200 840 Climbing New York TRACON
07:07PM 40.4333 -74.1167 159° South 308 354 14,300 1,320 Climbing New York TRACON
07:09PM 40.2961 -74.1283 184° South 349 402 16,600 1,140 Climbing Washington Center
07:09PM 40.2422 -74.1564 202° Southwest 295 339 17,000 180 Climbing New York Center
07:10PM 40.1578 -74.1928 198° South 310 357 17,000 600 Level New York Center
07:11PM 40.0819 -74.2217 196° South 316 364 18,200 1,380 Climbing New York Center
07:13PM 39.9875 -74.2700 201° Southwest 308 354 20,000 1,320 Climbing Washington Center
07:14PM 39.9194 -74.3336 216° Southwest 303 349 21,000 960 Climbing Washington Center
07:15PM 39.8492 -74.4022 217° Southwest 313 360 22,000 960 Climbing Washington Center
07:16PM 39.7792 -74.4792 220° Southwest 324 373 23,000 1,020 Climbing Washington Center
07:17PM 39.7175 -74.5639 227° Southwest 324 373 24,100 1,020 Climbing Washington Center
07:18PM 39.6514 -74.6508 225° Southwest 329 379 25,100 960 Climbing Washington Center
07:19PM 39.5875 -74.7353 226° Southwest 329 379 26,100 960 Climbing Washington Center
07:20PM 39.5236 -74.8222 226° Southwest 329 379 27,100 960 Climbing Washington Center
07:21PM 39.4572 -74.9089 225° Southwest 329 379 28,100 960 Climbing Washington Center
07:22PM 39.3933 -74.9953 226° Southwest 329 379 29,100 840 Climbing Washington Center
07:23PM 39.3394 -75.0628 224° Southwest 329 379 29,900 840 Climbing Washington Center
07:24PM 39.2542 -75.1333 213° Southwest 329 379 30,900 960 Climbing Washington Center
07:25PM 39.1669 -75.1739 200° South 334 384 31,900 960 Climbing Washington Center
07:26PM 39.0753 -75.2067 196° South 334 384 32,900 960 Climbing Washington Center
07:27PM 38.9900 -75.2472 200° South 339 390 33,900 960 Climbing Washington Center
07:28PM 38.9025 -75.2822 197° South 334 384 34,900 960 Climbing Washington Center
07:29PM 38.8211 -75.3172 199° South 324 373 35,900 480 Climbing Washington Center
07:30PM 38.7294 -75.3469 194° South 324 373 35,900  Level Washington Center
07:31PM 38.6400 -75.3922 202° Southwest 334 384 35,900  Level Washington Center
07:32PM 38.5442 -75.4325 198° South 350 403 35,900 300 Level Washington Center
07:33PM 38.4461 -75.4725 198° South 364 419 36,600 840 Climbing Washington Center
07:34PM 38.3567 -75.5097 198° South 358 412 37,600 1,140 Climbing Washington Center
07:35PM 38.2669 -75.5653 206° Southwest 348 400 38,900 960 Climbing Washington Center
07:36PM 38.1897 -75.6208 209° Southwest 326 375 39,600 540 Climbing Washington Center
07:37PM 38.1125 -75.6761 209° Southwest 326 375 40,000 180 Climbing Washington Center
07:38PM 38.0522 -75.7208 210° Southwest 326 375 40,000 -60 Level Washington Center
07:39PM 37.9644 -75.7919 213° Southwest 326 375 39,900  Descending Washington Center
07:40PM 37.8683 -75.8494 205° Southwest 338 389 40,000  Climbing Washington Center
07:41PM 37.7828 -75.9125 210° Southwest 351 404 40,000 -60 Level Washington Center
07:42PM 37.7094 -75.9750 214° Southwest 356 410 39,900 -60 Descending Washington Center
07:43PM 37.6197 -76.0350 208° Southwest 361 415 39,900  Level Washington Center
07:44PM 37.5339 -76.0947 209° Southwest 361 415 39,900  Level Washington Center
07:45PM 37.4439 -76.1569 209° Southwest 361 415 39,900  Level Washington Center
07:46PM 37.3414 -76.2214 207° Southwest 368 423 40,000  Climbing Washington Center
07:47PM 37.2536 -76.2833 209° Southwest 373 429 40,000 -240 Level Washington Center
07:48PM 37.1614 -76.3425 207° Southwest 373 429 39,600 -1,020 Descending Washington Center
07:49PM 37.0711 -76.4092 211° Southwest 373 429 38,000 -1,620 Descending Washington Center
07:50PM 36.9811 -76.4733 210° Southwest 373 429 36,400 -1,380 Descending Washington Center
07:51PM 36.8889 -76.5372 209° Southwest 373 429 35,300 -1,080 Descending Washington Center
07:52PM 36.7944 -76.5983 207° Southwest 373 429 34,300 -660 Descending Washington Center
07:53PM 36.7042 -76.6644 210° Southwest 373 429 34,000 -180 Descending Washington Center
07:54PM 36.6075 -76.7331 210° Southwest 385 443 34,000 -180 Level Washington Center
07:55PM 36.5131 -76.7989 209° Southwest 391 450 33,700 -660 Descending Washington Center
07:56PM 36.4142 -76.8644 208° Southwest 398 458 32,700 -900 Descending Washington Center
07:57PM 36.3156 -76.9297 208° Southwest 403 464 32,000 -360 Descending Washington Center
07:58PM 36.2167 -76.9950 208° Southwest 403 464 32,000  Level Washington Center
07:59PM 36.1200 -77.0603 209° Southwest 403 464 32,000  Level Washington Center
08:00PM 36.0253 -77.1228 208° Southwest 398 458 32,000 -360 Level Washington Center
08:01PM 35.9431 -77.1828 211° Southwest 398 458 31,300 -780 Descending Washington Center
08:02PM 35.8442 -77.2500 209° Southwest 398 458 30,500 -720 Descending Washington Center
08:03PM 35.7347 -77.3217 208° Southwest 405 466 30,000 -300 Descending Washington Center
08:04PM 35.6356 -77.3861 208° Southwest 413 475 30,000  Level Washington Center
08:05PM 35.5386 -77.4503 208° Southwest 407 468 30,000  Level Washington Center
08:06PM 35.4436 -77.5144 209° Southwest 407 468 30,000 -120 Level Washington Center
08:07PM 35.3508 -77.5783 209° Southwest 396 456 29,800 -1,080 Descending Washington Center
08:08PM 35.2681 -77.6678 221° Southwest 396 456 27,900 -2,100 Descending Washington Center
08:09PM 35.1831 -77.7547 220° Southwest 401 461 25,700 -1,920 Descending Washington Center
08:10PM 35.1000 -77.8414 220° Southwest 401 461 24,100 -1,200 Descending Washington Center
08:11PM 35.0233 -77.9203 220° Southwest 389 448 23,400 -660 Descending Washington Center
08:12PM 34.9467 -77.9967 219° Southwest 374 430 22,900 -600 Descending Washington Center
08:13PM 34.8678 -78.0803 221° Southwest 374 430 22,200 -480 Descending Washington Center
08:14PM 34.7889 -78.1664 222° Southwest 374 430 22,000 -120 Descending Washington Center
08:15PM 34.7119 -78.2450 220° Southwest 369 425 22,000  Level Washington Center
08:16PM 34.5697 -78.3919 220° Southwest 365 420 22,000  Level Jacksonville Center
08:17PM 34.4947 -78.4539 214° Southwest 365 420 22,000  Level Jacksonville Center
08:18PM 34.4164 -78.5433 223° Southwest 365 420 22,000  Level Jacksonville Center
08:19PM 34.3400 -78.6203 220° Southwest 365 420 22,000  Level Jacksonville Center
08:20PM 34.3017 -78.7250 246° West 347 399 22,000  Level Jacksonville Center
08:21PM 34.2911 -78.8486 264° West 344 396 22,000  Level Jacksonville Center
08:22PM 34.2825 -78.9747 265° West 360 414 22,000  Level Jacksonville Center
08:23PM 34.2717 -79.0958 264° West 367 422 22,000  Level Jacksonville Center
08:24PM 34.2814 -79.2161 276° West 367 422 22,000  Level Jacksonville Center
08:25PM 34.3286 -79.3272 297° West 359 413 22,000  Level Jacksonville Center
08:26PM 34.3644 -79.4214 295° West 364 419 22,000 -120 Level Jacksonville Center
08:27PM 34.4153 -79.5300 300° West 364 419 21,800 -900 Descending Jacksonville Center
08:28PM 34.4664 -79.6439 299° West 364 419 20,200 -1,740 Descending Jacksonville Center
08:29PM 34.5131 -79.7556 297° West 370 426 18,400 -1,800 Descending Jacksonville Center
08:30PM 34.5533 -79.8725 293° West 376 433 16,700 -1,680 Descending Jacksonville Center
08:31PM 34.6203 -79.9711 310° West 370 426 15,100 -1,620 Descending Jacksonville Center
08:32PM 34.6542 -80.0836 290° West 370 426 13,500 -1,560 Descending Jacksonville Center
08:34PM 34.6781 -80.2147 283° West 344 396 12,000 -1,200 Descending Atlanta Center
08:35PM 34.7003 -80.3247 284° West 342 394 11,100 -540 Descending Atlanta Center
08:36PM 34.7525 -80.4033 309° West 292 336 11,000 -840 Descending Atlanta Center
08:37PM 34.8200 -80.4917 313° West 304 350 9,400 -900 Descending Atlanta Center
08:38PM 34.8783 -80.5650 314° West 299 344 9,100 -240 Descending Atlanta Center
08:39PM 34.9258 -80.6239 315° West 274 315 9,000  Descending Atlanta Center
08:40PM 34.9886 -80.7025 314° West 295 339 9,100  Climbing Atlanta Center
08:41PM 35.0489 -80.7761 315° West 302 348 9,100  Level Atlanta Center
08:42PM 35.1272 -80.8136 339° North 300 345 9,100 -180 Level Atlanta Center
08:43PM 35.2042 -80.8031 North 293 337 8,800 -1,260 Descending Atlanta Center
08:44PM 35.2583 -80.7297 48° Northeast 294 338 6,600 -2,220 Descending Atlanta Center
08:45PM 35.3203 -80.6992 22° Northeast 280 322 4,600 -1,380 Descending Atlanta Center
08:46PM 35.3369 -80.7750 285° West 224 258 3,900 -840 Descending Atlanta Center
08:47PM 35.2986 -80.8272 228° Southwest 176 203 2,900 -900 Descending Atlanta Center
08:48PM 35.2744 -80.8614 229° Southwest 138 159 2,200 -660 Descending Atlanta Center
08:49PM 35.2522 -80.8903 227° Southwest 96 110 1,700 -540 Descending Atlanta Center
08:50PM 35.2342 -80.9189 232° Southwest 97 112 1,100 -540 Descending Atlanta Center
08:52PM 35.2000 -80.9333 180° South  Level FlightAware Approximate
08:59PM 35.2137 -80.9491 180° South  Level Estimated